createdAt,value
2019-05-20T00:00:25.625Z,100624.97
2019-05-20T00:02:53.114Z,100629.84
2019-05-20T00:05:20.599Z,100626.34
2019-05-20T00:07:48.119Z,100624.23
2019-05-20T00:10:15.576Z,100624.68
2019-05-20T00:12:43.145Z,100621.21
2019-05-20T00:15:10.716Z,100620.78
2019-05-20T00:17:38.246Z,100617.76
2019-05-20T00:20:05.697Z,100617.86
2019-05-20T00:22:33.200Z,100618.39
2019-05-20T00:25:00.805Z,100619.71
2019-05-20T00:27:28.281Z,100616.30
2019-05-20T00:29:55.755Z,100615.47
2019-05-20T00:32:23.273Z,100612.05
2019-05-20T00:34:50.713Z,100607.68
2019-05-20T00:37:18.172Z,100611.72
2019-05-20T00:39:45.708Z,100608.20
2019-05-20T00:42:13.165Z,100602.55
2019-05-20T00:44:40.665Z,100600.02
2019-05-20T00:47:08.389Z,100604.02
2019-05-20T00:49:35.879Z,100604.08
2019-05-20T00:52:03.375Z,100601.10
2019-05-20T00:54:30.964Z,100598.52
2019-05-20T00:56:58.425Z,100600.31
2019-05-20T00:59:25.907Z,100597.73
2019-05-20T01:01:53.376Z,100596.47
2019-05-20T01:04:20.853Z,100592.97
2019-05-20T01:06:48.361Z,100589.55
2019-05-20T01:09:15.943Z,100593.50
2019-05-20T01:11:43.419Z,100589.99
2019-05-20T01:14:10.863Z,100589.16
2019-05-20T01:16:38.361Z,100586.13
2019-05-20T01:19:05.829Z,100585.70
2019-05-20T01:21:33.340Z,100583.99
2019-05-20T01:24:00.851Z,100582.23
2019-05-20T01:26:28.312Z,100582.73
2019-05-20T01:28:55.802Z,100589.78
2019-05-20T01:31:23.333Z,100590.18
2019-05-20T01:33:50.814Z,100589.36
2019-05-20T01:36:18.279Z,100594.18
2019-05-20T01:38:45.749Z,100590.18
2019-05-20T01:41:13.251Z,100589.66
2019-05-20T01:43:40.727Z,100583.13
2019-05-20T01:46:08.237Z,100590.58
2019-05-20T01:48:35.699Z,100598.02
2019-05-20T01:51:03.215Z,100596.23
2019-05-20T01:53:30.690Z,100600.66
2019-05-20T01:55:58.198Z,100596.76
2019-05-20T01:58:25.647Z,100597.20
2019-05-20T02:00:53.135Z,100603.84
2019-05-20T02:03:31.319Z,100607.00
2019-05-20T02:05:50.020Z,100611.34
2019-05-20T02:08:17.519Z,100613.13
2019-05-20T02:10:45.039Z,100614.89
2019-05-20T02:13:12.754Z,100616.66
2019-05-20T02:15:56.409Z,100607.92
2019-05-20T02:18:24.370Z,100606.70
2019-05-20T02:20:52.327Z,100605.91
2019-05-20T02:23:20.091Z,100611.18
2019-05-20T02:25:48.267Z,100605.48
2019-05-20T02:28:16.235Z,100615.18
2019-05-20T02:30:43.998Z,100614.75
2019-05-20T02:33:11.759Z,100612.59
2019-05-20T02:35:39.588Z,100608.25
2019-05-20T02:38:07.433Z,100614.83
2019-05-20T02:40:35.543Z,100616.16
2019-05-20T02:43:03.336Z,100612.70
2019-05-20T02:45:30.895Z,100615.33
2019-05-20T02:47:58.751Z,100615.86
2019-05-20T02:50:26.515Z,100613.69
2019-05-20T02:52:54.215Z,100621.13
2019-05-20T02:55:22.149Z,100622.45
2019-05-20T02:57:50.114Z,100623.81
2019-05-20T03:00:17.879Z,100623.37
2019-05-20T03:02:45.642Z,100622.11
2019-05-20T03:05:13.199Z,100624.73
2019-05-20T03:07:41.270Z,100619.52
2019-05-20T03:10:08.989Z,100626.55
2019-05-20T03:12:36.654Z,100623.13
2019-05-20T03:15:04.566Z,100625.36
2019-05-20T03:17:32.286Z,100625.36
2019-05-20T03:20:00.091Z,100625.80
2019-05-20T03:22:27.651Z,100627.13
2019-05-20T03:24:55.618Z,100621.46
2019-05-20T03:27:23.499Z,100629.30
2019-05-20T03:29:51.283Z,100630.63
2019-05-20T03:32:18.983Z,100630.14
2019-05-20T03:34:57.559Z,100636.28
2019-05-20T03:37:16.686Z,100630.49
2019-05-20T03:39:44.355Z,100625.36
2019-05-20T03:42:12.162Z,100629.70
2019-05-20T03:44:39.974Z,100628.83
2019-05-20T03:47:07.852Z,100629.70
2019-05-20T03:49:35.718Z,100634.96
2019-05-20T03:52:03.478Z,100639.88
2019-05-20T03:54:31.243Z,100641.64
2019-05-20T03:56:59.088Z,100638.61
2019-05-20T03:59:26.813Z,100640.84
2019-05-20T04:01:54.506Z,100634.36
2019-05-20T04:04:25.029Z,100636.13
2019-05-20T04:06:51.952Z,100637.97
2019-05-20T04:09:19.877Z,100646.70
2019-05-20T04:11:47.675Z,100644.59
2019-05-20T04:14:15.655Z,100641.96
2019-05-20T04:16:43.272Z,100642.01
2019-05-20T04:19:10.757Z,100648.19
2019-05-20T04:21:38.668Z,100650.81
2019-05-20T04:24:06.457Z,100651.27
2019-05-20T04:26:34.187Z,100660.95
2019-05-20T04:29:02.195Z,100649.55
2019-05-20T04:31:30.053Z,100650.00
2019-05-20T04:33:57.920Z,100639.03
2019-05-20T04:36:25.695Z,100632.31
2019-05-20T04:38:57.200Z,100629.55
2019-05-20T04:41:24.766Z,100624.77
2019-05-20T04:43:52.307Z,100624.34
2019-05-20T04:46:19.862Z,100627.05
2019-05-20T04:48:47.406Z,100625.83
2019-05-20T04:51:14.883Z,100631.19
2019-05-20T04:53:42.692Z,100628.60
2019-05-20T04:56:10.605Z,100622.99
2019-05-20T04:58:38.098Z,100620.02
2019-05-20T05:01:05.584Z,100623.04
2019-05-20T05:03:33.055Z,100623.52
2019-05-20T05:06:00.676Z,100619.09
2019-05-20T05:08:28.254Z,100620.94
2019-05-20T05:10:55.693Z,100616.20
2019-05-20T05:13:23.369Z,100627.61
2019-05-20T05:15:50.835Z,100628.92
2019-05-20T05:18:18.462Z,100632.33
2019-05-20T05:20:45.918Z,100622.16
2019-05-20T05:23:13.603Z,100621.67
2019-05-20T05:25:41.432Z,100623.47
2019-05-20T05:28:08.906Z,100626.59
2019-05-20T05:30:36.429Z,100628.83
2019-05-20T05:33:03.881Z,100630.53
2019-05-20T05:35:31.454Z,100618.75
2019-05-20T05:37:59.007Z,100621.81
2019-05-20T05:40:29.663Z,100622.64
2019-05-20T05:42:57.158Z,100621.73
2019-05-20T05:45:29.722Z,100619.97
2019-05-20T05:47:57.356Z,100622.59
2019-05-20T05:50:24.956Z,100626.50
2019-05-20T05:52:52.444Z,100629.52
2019-05-20T05:55:19.949Z,100623.34
2019-05-20T05:57:47.505Z,100625.09
2019-05-20T06:00:14.986Z,100632.98
2019-05-20T06:02:42.921Z,100636.92
2019-05-20T06:05:10.818Z,100640.87
2019-05-20T06:07:38.301Z,100646.97
2019-05-20T06:10:05.950Z,100636.84
2019-05-20T06:12:33.429Z,100641.66
2019-05-20T06:15:01.011Z,100642.05
2019-05-20T06:17:28.523Z,100652.09
2019-05-20T06:19:56.022Z,100651.21
2019-05-20T06:22:23.806Z,100658.14
2019-05-20T06:24:51.833Z,100662.56
2019-05-20T06:27:19.555Z,100653.01
2019-05-20T06:29:47.048Z,100659.06
2019-05-20T06:32:14.975Z,100651.52
2019-05-20T06:34:43.243Z,100647.82
2019-05-20T06:37:12.787Z,100654.40
2019-05-20T06:39:40.513Z,100657.42
2019-05-20T06:42:08.546Z,100659.61
2019-05-20T06:44:51.680Z,100667.03
2019-05-20T06:47:05.509Z,100662.69
2019-05-20T06:49:32.963Z,100670.97
2019-05-20T06:52:00.404Z,100654.40
2019-05-20T06:54:27.887Z,100669.47
2019-05-20T06:56:55.371Z,100676.09
2019-05-20T06:59:23.030Z,100663.28
2019-05-20T07:01:50.923Z,100665.39
2019-05-20T07:04:18.822Z,100669.80
2019-05-20T07:06:47.646Z,100670.20
2019-05-20T07:09:15.643Z,100669.67
2019-05-20T07:11:52.270Z,100665.33
2019-05-20T07:14:12.801Z,100671.41
2019-05-20T07:16:40.293Z,100673.47
2019-05-20T07:19:07.767Z,100671.63
2019-05-20T07:21:35.486Z,100671.28
2019-05-20T07:24:04.203Z,100668.66
2019-05-20T07:26:31.724Z,100666.37
2019-05-20T07:28:59.165Z,100671.19
2019-05-20T07:31:26.837Z,100669.77
2019-05-20T07:33:54.329Z,100669.42
2019-05-20T07:36:22.069Z,100671.58
2019-05-20T07:38:49.631Z,100678.06
2019-05-20T07:41:17.180Z,100674.46
2019-05-20T07:43:44.692Z,100672.70
2019-05-20T07:46:12.151Z,100671.39
2019-05-20T07:48:39.992Z,100663.06
2019-05-20T07:51:07.630Z,100678.46
2019-05-20T07:53:35.650Z,100669.30
2019-05-20T07:56:15.279Z,100664.55
2019-05-20T07:58:45.424Z,100662.72
2019-05-20T08:01:12.900Z,100650.66
2019-05-20T08:03:40.575Z,100664.46
2019-05-20T08:06:08.351Z,100668.75
2019-05-20T08:08:35.925Z,100666.12
2019-05-20T08:11:03.712Z,100670.41
2019-05-20T08:13:32.762Z,100662.81
2019-05-20T08:16:00.705Z,100671.00
2019-05-20T08:18:28.185Z,100675.16
2019-05-20T08:20:55.898Z,100677.30
2019-05-20T08:23:23.549Z,100672.83
2019-05-20T08:25:51.472Z,100674.53
2019-05-20T08:28:18.944Z,100674.91
2019-05-20T08:30:46.523Z,100675.75
2019-05-20T08:33:13.978Z,100678.38
2019-05-20T08:35:41.485Z,100674.38
2019-05-20T08:38:09.089Z,100690.13
2019-05-20T08:40:37.047Z,100695.30
2019-05-20T08:43:04.582Z,100698.82
2019-05-20T08:45:32.147Z,100701.01
2019-05-20T08:47:59.632Z,100693.45
2019-05-20T08:50:27.126Z,100691.98
2019-05-20T08:52:54.698Z,100696.67
2019-05-20T08:55:22.145Z,100700.97
2019-05-20T08:57:49.642Z,100702.13
2019-05-20T09:00:23.634Z,100700.33
2019-05-20T09:02:50.027Z,100702.13
2019-05-20T09:05:17.455Z,100705.10
2019-05-20T09:08:01.099Z,100705.89
2019-05-20T09:10:18.157Z,100708.81
2019-05-20T09:12:44.627Z,100707.94
2019-05-20T09:15:12.111Z,100705.65
2019-05-20T09:17:39.643Z,100700.27
2019-05-20T09:20:07.784Z,100703.77
2019-05-20T09:22:35.277Z,100708.05
2019-05-20T09:25:03.063Z,100708.45
2019-05-20T09:27:30.552Z,100700.44
2019-05-20T09:29:58.014Z,100707.02
2019-05-20T09:32:25.523Z,100702.14
2019-05-20T09:34:52.984Z,100700.35
2019-05-20T09:37:20.448Z,100705.86
2019-05-20T09:39:47.900Z,100707.99
2019-05-20T09:42:15.402Z,100709.70
2019-05-20T09:44:42.844Z,100704.82
2019-05-20T09:47:10.415Z,100699.50
2019-05-20T09:49:37.883Z,100701.16
2019-05-20T09:52:05.362Z,100693.92
2019-05-20T09:54:32.900Z,100693.70
2019-05-20T09:57:00.560Z,100693.56
2019-05-20T09:59:41.988Z,100689.44
2019-05-20T10:01:57.496Z,100695.44
2019-05-20T10:04:24.991Z,100691.82
2019-05-20T10:06:52.699Z,100694.01
2019-05-20T10:09:20.206Z,100696.54
2019-05-20T10:11:47.692Z,100697.32
2019-05-20T10:14:15.197Z,100695.89
2019-05-20T10:16:42.649Z,100699.78
2019-05-20T10:19:10.162Z,100696.61
2019-05-20T10:21:37.617Z,100693.86
2019-05-20T10:24:06.581Z,100693.27
2019-05-20T10:26:34.166Z,100691.84
2019-05-20T10:29:01.726Z,100686.02
2019-05-20T10:31:29.221Z,100686.84
2019-05-20T10:33:57.030Z,100689.80
2019-05-20T10:36:24.507Z,100687.53
2019-05-20T10:38:58.461Z,100687.81
2019-05-20T10:41:21.331Z,100688.47
2019-05-20T10:43:48.907Z,100684.40
2019-05-20T10:46:16.363Z,100687.81
2019-05-20T10:48:43.830Z,100688.63
2019-05-20T10:51:11.312Z,100688.09
2019-05-20T10:53:38.760Z,100692.38
2019-05-20T10:56:06.259Z,100684.79
2019-05-20T10:58:33.707Z,100684.79
2019-05-20T11:01:03.430Z,100688.18
2019-05-20T11:03:30.691Z,100685.72
2019-05-20T11:05:58.185Z,100686.53
2019-05-20T11:08:25.674Z,100691.69
2019-05-20T11:10:53.459Z,100688.51
2019-05-20T11:13:21.135Z,100691.35
2019-05-20T11:15:48.635Z,100691.08
2019-05-20T11:18:16.164Z,100697.17
2019-05-20T11:20:43.646Z,100692.73
2019-05-20T11:23:11.238Z,100699.81
2019-05-20T11:25:38.728Z,100685.13
2019-05-20T11:28:06.193Z,100680.98
2019-05-20T11:30:33.719Z,100691.81
2019-05-20T11:33:01.209Z,100687.79
2019-05-20T11:35:28.685Z,100693.40
2019-05-20T11:37:56.150Z,100692.41
2019-05-20T11:40:23.735Z,100695.56
2019-05-20T11:42:51.212Z,100697.03
2019-05-20T11:45:18.708Z,100690.88
2019-05-20T11:47:46.181Z,100684.28
2019-05-20T11:50:14.405Z,100694.39
2019-05-20T11:52:41.885Z,100695.17
2019-05-20T11:55:09.382Z,100690.21
2019-05-20T11:57:36.849Z,100688.80
2019-05-20T12:00:04.664Z,100679.88
2019-05-20T12:02:32.237Z,100678.88
2019-05-20T12:04:59.681Z,100682.30
2019-05-20T12:07:27.212Z,100681.40
2019-05-20T12:09:54.671Z,100683.98
2019-05-20T12:12:22.214Z,100684.75
2019-05-20T12:14:49.684Z,100688.66
2019-05-20T12:17:17.151Z,100672.99
2019-05-20T12:19:44.622Z,100686.66
2019-05-20T12:22:12.074Z,100687.46
2019-05-20T12:24:39.572Z,100685.05
2019-05-20T12:27:07.059Z,100684.15
2019-05-20T12:29:34.539Z,100684.47
2019-05-20T12:32:03.546Z,100679.57
2019-05-20T12:34:31.325Z,100684.24
2019-05-20T12:36:58.828Z,100684.56
2019-05-20T12:39:26.385Z,100673.48
2019-05-20T12:41:53.838Z,100672.09
2019-05-20T12:44:21.289Z,100674.67
2019-05-20T12:46:48.739Z,100667.06
2019-05-20T12:49:16.449Z,100665.64
2019-05-20T12:51:43.958Z,100666.52
2019-05-20T12:54:11.443Z,100659.77
2019-05-20T12:56:38.920Z,100666.70
2019-05-20T12:59:06.407Z,100664.83
2019-05-20T13:01:33.862Z,100666.89
2019-05-20T13:04:01.538Z,100664.08
2019-05-20T13:06:29.138Z,100663.00
2019-05-20T13:08:56.858Z,100669.48
2019-05-20T13:11:24.755Z,100661.09
2019-05-20T13:13:52.487Z,100666.28
2019-05-20T13:16:19.975Z,100662.32
2019-05-20T13:18:55.920Z,100657.52
2019-05-20T13:21:16.827Z,100657.03
2019-05-20T13:23:48.568Z,100664.44
2019-05-20T13:26:14.047Z,100663.79
2019-05-20T13:28:41.493Z,100659.13
2019-05-20T13:31:09.227Z,100654.58
2019-05-20T13:33:36.678Z,100650.82
2019-05-20T13:36:04.154Z,100646.33
2019-05-20T13:38:31.638Z,100638.72
2019-05-20T13:40:59.539Z,100635.52
2019-05-20T13:43:27.163Z,100635.93
2019-05-20T13:45:54.990Z,100632.34
2019-05-20T13:48:22.826Z,100636.24
2019-05-20T13:50:50.585Z,100630.78
2019-05-20T13:53:18.241Z,100628.48
2019-05-20T13:55:46.214Z,100628.72
2019-05-20T13:58:13.715Z,100624.96
2019-05-20T14:00:41.179Z,100623.50
2019-05-20T14:03:08.677Z,100624.53
2019-05-20T14:05:36.496Z,100612.83
2019-05-20T14:08:04.330Z,100604.75
2019-05-20T14:10:31.873Z,100598.52
2019-05-20T14:12:59.646Z,100600.56
2019-05-20T14:15:27.143Z,100604.20
2019-05-20T14:17:54.675Z,100605.61
2019-05-20T14:20:22.125Z,100597.72
2019-05-20T14:22:50.082Z,100600.13
2019-05-20T14:25:17.948Z,100593.28
2019-05-20T14:27:45.402Z,100587.88
2019-05-20T14:30:12.932Z,100585.63
2019-05-20T14:32:40.784Z,100588.55
2019-05-20T14:35:08.506Z,100587.62
2019-05-20T14:37:36.165Z,100585.36
2019-05-20T14:40:03.836Z,100573.39
2019-05-20T14:42:31.329Z,100579.86
2019-05-20T14:44:58.818Z,100575.48
2019-05-20T14:47:26.507Z,100571.51
2019-05-20T14:49:53.982Z,100568.49
2019-05-20T14:52:22.789Z,100566.39
2019-05-20T14:54:50.825Z,100563.64
2019-05-20T14:57:18.446Z,100558.02
2019-05-20T14:59:45.937Z,100553.95
2019-05-20T15:02:13.592Z,100564.64
2019-05-20T15:04:41.349Z,100558.33
2019-05-20T15:07:09.057Z,100569.05
2019-05-20T15:09:36.785Z,100558.48
2019-05-20T15:12:04.475Z,100560.38
2019-05-20T15:14:32.309Z,100569.47
2019-05-20T15:16:59.784Z,100567.73
2019-05-20T15:19:27.222Z,100572.87
2019-05-20T15:21:54.780Z,100565.41
2019-05-20T15:24:22.238Z,100576.94
2019-05-20T15:26:49.775Z,100575.81
2019-05-20T15:29:27.607Z,100586.52
2019-05-20T15:31:46.685Z,100587.47
2019-05-20T15:34:14.156Z,100586.69
2019-05-20T15:36:41.676Z,100593.23
2019-05-20T15:39:09.337Z,100589.63
2019-05-20T15:41:37.293Z,100578.55
2019-05-20T15:44:04.839Z,100570.59
2019-05-20T15:46:32.662Z,100572.46
2019-05-20T15:49:00.210Z,100570.30
2019-05-20T15:51:27.662Z,100571.34
2019-05-20T15:53:55.162Z,100560.02
2019-05-20T15:56:22.650Z,100557.00
2019-05-20T15:58:50.099Z,100556.54
2019-05-20T16:01:17.573Z,100559.56
2019-05-20T16:03:45.038Z,100560.23
2019-05-20T16:06:12.728Z,100564.50
2019-05-20T16:08:40.210Z,100561.19
2019-05-20T16:11:07.762Z,100564.12
2019-05-20T16:13:35.231Z,100568.89
2019-05-20T16:16:06.002Z,100562.05
2019-05-20T16:18:33.860Z,100560.52
2019-05-20T16:21:01.337Z,100565.41
2019-05-20T16:23:28.822Z,100562.59
2019-05-20T16:25:56.303Z,100557.49
2019-05-20T16:28:23.861Z,100563.95
2019-05-20T16:30:51.338Z,100564.70
2019-05-20T16:33:18.823Z,100561.30
2019-05-20T16:35:46.324Z,100563.66
2019-05-20T16:38:16.499Z,100567.73
2019-05-20T16:40:44.091Z,100580.83
2019-05-20T16:43:11.603Z,100577.40
2019-05-20T16:45:39.101Z,100575.91
2019-05-20T16:48:06.528Z,100582.33
2019-05-20T16:50:34.151Z,100583.66
2019-05-20T16:53:01.717Z,100586.14
2019-05-20T16:55:29.308Z,100586.64
2019-05-20T16:57:56.822Z,100587.67
2019-05-20T17:00:31.361Z,100591.78
2019-05-20T17:02:53.662Z,100584.48
2019-05-20T17:05:21.966Z,100592.44
2019-05-20T17:07:49.458Z,100592.06
2019-05-20T17:10:17.006Z,100585.80
2019-05-20T17:12:44.523Z,100580.33
2019-05-20T17:15:13.773Z,100577.50
2019-05-20T17:17:41.283Z,100586.21
2019-05-20T17:20:08.780Z,100576.74
2019-05-20T17:22:36.776Z,100563.30
2019-05-20T17:25:04.417Z,100561.62
2019-05-20T17:27:31.865Z,100560.55
2019-05-20T17:29:59.630Z,100564.88
2019-05-20T17:32:27.297Z,100560.12
2019-05-20T17:34:55.024Z,100560.03
2019-05-20T17:37:22.720Z,100559.80
2019-05-20T17:39:50.294Z,100564.16
2019-05-20T17:42:17.736Z,100568.00
2019-05-20T17:44:45.402Z,100571.32
2019-05-20T17:47:13.214Z,100574.06
2019-05-20T17:49:40.701Z,100571.49
2019-05-20T17:52:08.184Z,100571.87
2019-05-20T17:54:35.938Z,100585.55
2019-05-20T17:57:03.488Z,100584.30
2019-05-20T17:59:30.936Z,100590.86
2019-05-20T18:01:58.363Z,100604.51
2019-05-20T18:04:26.189Z,100606.59
2019-05-20T18:06:53.809Z,100604.05
2019-05-20T18:09:22.657Z,100603.92
2019-05-20T18:11:50.155Z,100600.59
2019-05-20T18:14:17.683Z,100597.81
2019-05-20T18:16:45.177Z,100600.79
2019-05-20T18:19:12.743Z,100599.47
2019-05-20T18:21:40.197Z,100612.73
2019-05-20T18:24:07.667Z,100615.08
2019-05-20T18:26:35.123Z,100613.75
2019-05-20T18:29:02.891Z,100612.59
2019-05-20T18:31:32.717Z,100614.38
2019-05-20T18:34:00.362Z,100616.74
2019-05-20T18:36:27.831Z,100620.15
2019-05-20T18:38:55.292Z,100620.15
2019-05-20T18:41:22.770Z,100616.17
2019-05-20T18:43:50.233Z,100626.58
2019-05-20T18:46:17.781Z,100627.33
2019-05-20T18:48:45.614Z,100622.19
2019-05-20T18:51:13.382Z,100623.97
2019-05-20T18:53:41.145Z,100633.55
2019-05-20T18:56:08.704Z,100641.01
2019-05-20T18:58:38.087Z,100644.86
2019-05-20T19:01:05.846Z,100642.20
2019-05-20T19:03:34.100Z,100639.41
2019-05-20T19:06:05.188Z,100648.94
2019-05-20T19:08:32.949Z,100645.77
2019-05-20T19:11:00.683Z,100645.23
2019-05-20T19:13:28.469Z,100655.46
2019-05-20T19:15:55.945Z,100650.31
2019-05-20T19:18:23.402Z,100658.47
2019-05-20T19:20:50.925Z,100662.91
2019-05-20T19:23:18.362Z,100665.41
2019-05-20T19:25:46.109Z,100665.50
2019-05-20T19:28:13.571Z,100658.87
2019-05-20T19:30:41.038Z,100657.00
2019-05-20T19:33:08.761Z,100656.22
2019-05-20T19:35:36.182Z,100651.94
2019-05-20T19:38:03.963Z,100650.31
2019-05-20T19:40:31.832Z,100647.93
2019-05-20T19:42:59.534Z,100644.49
2019-05-20T19:45:27.150Z,100639.91
2019-05-20T19:47:54.602Z,100634.96
2019-05-20T19:50:22.058Z,100639.33
2019-05-20T19:52:49.587Z,100630.73
2019-05-20T19:55:19.045Z,100628.06
2019-05-20T19:57:46.441Z,100626.89
2019-05-20T20:00:14.010Z,100629.31
2019-05-20T20:02:41.706Z,100628.78
2019-05-20T20:05:09.139Z,100626.92
2019-05-20T20:07:36.611Z,100624.69
2019-05-20T20:10:04.093Z,100624.84
2019-05-20T20:12:31.648Z,100625.55
2019-05-20T20:14:59.158Z,100625.80
2019-05-20T20:17:26.659Z,100632.57
2019-05-20T20:19:54.148Z,100631.58
2019-05-20T20:22:21.758Z,100624.23
2019-05-20T20:24:49.835Z,100632.67
2019-05-20T20:27:17.488Z,100631.72
2019-05-20T20:29:44.950Z,100628.39
2019-05-20T20:32:12.421Z,100633.37
2019-05-20T20:34:39.962Z,100632.20
2019-05-20T20:37:07.444Z,100641.72
2019-05-20T20:39:35.136Z,100633.95
2019-05-20T20:42:02.962Z,100629.75
2019-05-20T20:44:30.429Z,100632.02
2019-05-20T20:46:57.921Z,100631.77
2019-05-20T20:49:25.378Z,100633.09
2019-05-20T20:51:53.194Z,100631.53
2019-05-20T20:54:20.965Z,100632.86
2019-05-20T20:56:48.770Z,100625.52
2019-05-20T20:59:16.529Z,100628.41
2019-05-20T21:01:44.013Z,100632.45
2019-05-20T21:04:11.454Z,100630.81
2019-05-20T21:06:38.951Z,100631.38
2019-05-20T21:09:06.410Z,100631.96
2019-05-20T21:11:34.034Z,100636.48
2019-05-20T21:14:01.630Z,100637.95
2019-05-20T21:16:29.063Z,100641.61
2019-05-20T21:18:56.545Z,100640.35
2019-05-20T21:21:23.993Z,100646.20
2019-05-20T21:23:51.619Z,100644.08
2019-05-20T21:26:19.092Z,100651.69
2019-05-20T21:28:46.593Z,100648.80
2019-05-20T21:31:14.056Z,100646.30
2019-05-20T21:33:41.506Z,100655.17
2019-05-20T21:36:08.982Z,100654.02
2019-05-20T21:38:36.534Z,100651.51
2019-05-20T21:41:04.045Z,100647.67
2019-05-20T21:43:31.538Z,100648.58
2019-05-20T21:45:59.113Z,100645.62
2019-05-20T21:48:26.957Z,100651.91
2019-05-20T21:50:54.451Z,100643.59
2019-05-20T21:53:23.492Z,100642.79
2019-05-20T21:55:51.327Z,100643.34
2019-05-20T21:58:19.233Z,100649.16
2019-05-20T22:00:51.511Z,100642.67
2019-05-20T22:03:24.677Z,100646.80
2019-05-20T22:05:48.486Z,100642.98
2019-05-20T22:08:16.017Z,100643.59
2019-05-20T22:10:43.482Z,100640.22
2019-05-20T22:13:10.950Z,100637.25
2019-05-20T22:15:38.486Z,100629.39
2019-05-20T22:18:05.961Z,100623.33
2019-05-20T22:20:33.443Z,100617.34
2019-05-20T22:23:18.991Z,100620.50
2019-05-20T22:25:47.735Z,100619.25
2019-05-20T22:28:15.484Z,100618.99
2019-05-20T22:30:43.454Z,100622.58
2019-05-20T22:33:11.082Z,100613.48
2019-05-20T22:35:38.934Z,100610.05
2019-05-20T22:38:06.803Z,100612.30
2019-05-20T22:40:34.567Z,100611.98
2019-05-20T22:43:02.299Z,100606.76
2019-05-20T22:45:30.057Z,100605.95
2019-05-20T22:47:57.966Z,100607.38
2019-05-20T22:50:25.405Z,100604.80
2019-05-20T22:52:52.930Z,100598.33
2019-05-20T22:55:20.378Z,100595.23
2019-05-20T22:57:47.868Z,100596.55
2019-05-20T23:00:15.467Z,100596.61
2019-05-20T23:02:42.929Z,100596.23
2019-05-20T23:05:10.471Z,100592.27
2019-05-20T23:07:38.017Z,100590.59
2019-05-20T23:10:05.608Z,100594.66
2019-05-20T23:12:33.110Z,100592.88
2019-05-20T23:15:00.707Z,100585.44
2019-05-20T23:17:28.169Z,100589.47
2019-05-20T23:19:55.657Z,100591.72
2019-05-20T23:22:23.139Z,100599.22
2019-05-20T23:24:50.644Z,100594.88
2019-05-20T23:27:18.157Z,100594.48
2019-05-20T23:29:45.705Z,100590.98
2019-05-20T23:32:13.188Z,100595.17
2019-05-20T23:34:40.670Z,100589.02
2019-05-20T23:37:08.145Z,100586.86
2019-05-20T23:39:35.597Z,100589.08
2019-05-20T23:42:03.106Z,100581.70
2019-05-20T23:44:30.590Z,100588.76
2019-05-20T23:46:58.004Z,100584.80
2019-05-20T23:49:25.537Z,100583.54
2019-05-20T23:51:53.162Z,100586.66
2019-05-20T23:54:20.666Z,100584.47
2019-05-20T23:56:48.131Z,100590.30
2019-05-20T23:59:15.644Z,100583.31
